MET1146 - Portland to Ontario

Boeing 737-200
711MT
2 hrs 00 mins
730 nm
Scheduled - M

Bid/PiRep Status

Bid was submitted on Dec 28 2016.

PiRep # 74542: Approved by Dave Nichols on January 1st, 2017 4:06 UTC

Departure

Departing from
Portland (PDX)
Departure gate
Scheduled Departure
GMT 1930
Local 1230
METAR KPDX 222353Z 28012KT 10SM FEW038 SCT050 BKN060 12/04 A3002 RMK AO2 SLP164 60008 T01170044 10122 20094 53015
TAF KPDX 222322Z 2300/2324 23011KT P6SM SCT030 BKN045 TEMPO 2300/2302 -SHRA BKN030 FM230300 20004KT P6SM SCT035 BKN050 FM230600 15003KT P6SM SCT035 BKN050 FM230900 12005KT P6SM BKN025 FM231800 12008KT P6SM SCT030 SCT150 OVC250 FM232200 12012KT P6SM VCSH BKN05

Arrival

Arriving at
Ontario (ONT)
Arrival gate
Scheduled Arrival
GMT 2130
Local 1430
METAR KONT 222353Z 23014KT 10SM SCT045 SCT055 BKN250 18/07 A2993 RMK AO2 SLP128 T01830072 10206 20161 56018
TAF KONT 222320Z 2300/2406 27012KT P6SM VCSH SCT035 BKN050 FM230700 VRB06KT P6SM SCT050 FM232000 25011KT P6SM FEW050 FM240400 VRB05KT P6SM SCT250

Route Map

Planning Resources

LHV J5 EHF ZIGGY4
KPDX POWEL LKV HARTT PYRAM FMG TILTS SONNY TIOGA PINNI EHF KONT
KDPX BTG LKV HARTT PYRAM FMG TILTS SONNY TIOGA PINNI EHF ZIGGY KONT
RIVER6 BTG J189 AVE EHF ZIGGY4
KPDX DCT URBIA V165 LKV J5 EHF STAR KONT
Route:
OFP Layout:
Units:
Detailed Navlog:
ETOPS Planning:
Plan Stepclimbs:
Runway Analysis:
Include NOTAMS:
FIR NOTAMS:
Flight Maps:

Popularity

Hub Current Bids PiReps this month Total PiReps
KMCI 0 0 3
KLAX 0 0 2
KBOS 0 0 0